Time;durP1;ratioP1;P1;durP2;ratioP2;P2;SDS_P1;SDS_P2;PMS_P1;PMS_P2;Temp;Humidity;BMP_temperature;BMP_pressure;BME280_temperature;BME280_humidity;BME280_pressure;Samples;Min_cycle;Max_cycle;Signal;HPM_P1;HPM_P2
2023/06/15 00:01:17;;;;;;;2.40;1.45;;;;;;;20.35;33.93;101011.03;5065205;28;20453;-71
2023/06/15 00:03:43;;;;;;;1.55;1.20;;;;;;;20.37;34.13;101022.34;5065073;28;20063;-70
2023/06/15 00:06:08;;;;;;;5.18;1.60;;;;;;;20.35;34.07;101024.22;5065253;28;20032;-70
2023/06/15 00:08:34;;;;;;;2.75;1.80;;;;;;;20.29;34.05;101007.72;5064875;28;20021;-71
2023/06/15 00:11:00;;;;;;;2.65;1.90;;;;;;;20.28;34.13;101016.56;5064812;28;20029;-71
2023/06/15 00:13:26;;;;;;;1.52;1.42;;;;;;;20.21;34.27;101012.41;5065014;28;20033;-70
2023/06/15 00:15:51;;;;;;;5.35;1.92;;;;;;;20.21;34.31;101022.97;5064951;28;20473;-70
2023/06/15 00:18:17;;;;;;;1.85;1.52;;;;;;;20.20;34.21;101018.63;5064880;28;20056;-70
2023/06/15 00:20:44;;;;;;;2.90;1.55;;;;;;;20.15;34.00;101015.31;5046965;28;20103;-70
2023/06/15 00:23:10;;;;;;;3.28;1.98;;;;;;;20.18;34.03;101020.44;5065020;28;20516;-71
2023/06/15 00:25:36;;;;;;;2.63;1.50;;;;;;;20.10;33.91;101009.34;5064731;28;20486;-70
2023/06/15 00:28:02;;;;;;;2.63;1.83;;;;;;;20.08;34.18;101016.47;5065095;28;20029;-70
2023/06/15 00:30:27;;;;;;;2.95;1.90;;;;;;;20.03;34.05;101009.59;5065180;28;20440;-70
2023/06/15 00:32:53;;;;;;;6.18;1.98;;;;;;;20.00;34.07;101009.66;5065125;28;20509;-70
2023/06/15 00:35:18;;;;;;;3.25;2.03;;;;;;;19.88;34.11;101005.75;5064810;28;20025;-70
2023/06/15 00:37:44;;;;;;;3.33;2.05;;;;;;;19.84;34.22;101003.28;5064770;28;20051;-69
2023/06/15 00:40:10;;;;;;;2.55;1.60;;;;;;;19.68;34.59;100988.91;5064347;28;20032;-70
2023/06/15 00:42:36;;;;;;;1.75;1.50;;;;;;;19.66;34.68;100993.41;5064967;28;20029;-70
2023/06/15 00:45:02;;;;;;;2.60;1.70;;;;;;;19.62;34.76;100996.19;5064850;28;20406;-70
2023/06/15 00:47:28;;;;;;;2.85;2.08;;;;;;;19.54;34.78;100997.34;5064831;28;20094;-70
2023/06/15 00:49:54;;;;;;;1.20;1.10;;;;;;;19.49;34.88;100996.63;5064607;28;20071;-70
2023/06/15 00:52:21;;;;;;;2.63;2.08;;;;;;;19.43;34.73;100994.22;5064813;28;20025;-70
2023/06/15 00:54:48;;;;;;;2.78;1.83;;;;;;;19.28;35.50;100993.88;5064488;28;20032;-70
2023/06/15 00:57:14;;;;;;;2.08;1.67;;;;;;;19.26;35.62;100987.81;5064628;28;20033;-69
2023/06/15 00:59:41;;;;;;;2.80;1.85;;;;;;;19.24;35.47;100994.91;5064783;28;20032;-71
2023/06/15 01:02:12;;;;;;;2.10;1.55;;;;;;;19.25;35.78;100991.34;5064294;28;20035;-71
2023/06/15 01:04:39;;;;;;;2.92;2.00;;;;;;;19.21;35.95;100979.22;5064876;28;20103;-70
2023/06/15 01:07:10;;;;;;;3.80;1.90;;;;;;;19.22;36.04;100985.34;5064715;28;20035;-71
2023/06/15 01:09:39;;;;;;;4.78;2.38;;;;;;;19.28;35.92;100979.88;5064359;28;20032;-69
2023/06/15 01:12:07;;;;;;;2.55;2.03;;;;;;;19.34;35.96;100989.28;5064587;28;20032;-71
2023/06/15 01:14:33;;;;;;;3.60;1.55;;;;;;;19.35;36.09;100977.84;5046523;28;20074;-70
2023/06/15 01:17:15;;;;;;;2.90;1.75;;;;;;;19.39;35.89;100979.47;5064494;28;20025;-70
2023/06/15 01:20:04;;;;;;;2.72;1.88;;;;;;;19.44;35.84;100980.16;5064400;28;20021;-71
2023/06/15 01:22:49;;;;;;;1.98;1.42;;;;;;;19.42;35.79;100976.72;5064245;28;20039;-70
2023/06/15 01:25:29;;;;;;;2.97;1.95;;;;;;;19.40;35.96;100987.31;5064862;28;20044;-70
2023/06/15 01:28:01;;;;;;;1.52;1.27;;;;;;;19.40;35.93;100984.69;5067995;28;20047;-70
2023/06/15 01:30:53;;;;;;;2.47;2.00;;;;;;;19.39;35.87;100988.22;5067953;28;20048;-70
2023/06/15 01:33:20;;;;;;;3.00;1.63;;;;;;;19.35;36.18;100989.25;5065127;28;20032;-70
2023/06/15 01:35:45;;;;;;;2.10;1.75;;;;;;;19.33;35.93;100975.28;5067715;28;20502;-70
2023/06/15 01:38:12;;;;;;;5.07;2.28;;;;;;;19.27;36.21;100973.72;5067852;28;20021;-69
2023/06/15 01:40:39;;;;;;;3.38;1.80;;;;;;;19.29;36.24;100981.56;5067295;28;20044;-69
2023/06/15 01:43:09;;;;;;;3.92;2.20;;;;;;;19.31;35.77;100983.22;5067873;28;20033;-70
2023/06/15 01:45:36;;;;;;;1.77;1.58;;;;;;;19.29;35.95;100976.31;5049742;28;20029;-70
2023/06/15 01:48:02;;;;;;;3.72;1.65;;;;;;;19.25;36.06;100970.28;5067527;28;20025;-70
2023/06/15 01:50:30;;;;;;;3.45;1.77;;;;;;;19.27;35.95;100973.72;5067538;28;20075;-70
2023/06/15 01:52:56;;;;;;;2.20;1.40;;;;;;;19.26;35.89;100972.03;5067675;28;20025;-70
2023/06/15 01:55:21;;;;;;;6.50;1.50;;;;;;;19.22;35.83;100975.66;5067333;28;20063;-70
2023/06/15 01:57:47;;;;;;;2.35;1.60;;;;;;;19.28;35.67;100971.97;5067552;28;20027;-69
2023/06/15 02:00:13;;;;;;;2.60;1.65;;;;;;;19.22;35.68;100965.13;5067565;28;20032;-70
2023/06/15 02:02:38;;;;;;;2.30;1.83;;;;;;;19.22;35.78;100964.28;5067254;28;20029;-70
2023/06/15 02:05:06;;;;;;;1.85;1.55;;;;;;;19.20;35.76;100966.97;5067308;28;20021;-70
2023/06/15 02:07:32;;;;;;;2.85;1.70;;;;;;;19.17;35.68;100967.09;5067433;28;20077;-69
2023/06/15 02:09:58;;;;;;;2.25;1.15;;;;;;;19.13;35.64;100960.19;5066858;28;20031;-70
2023/06/15 02:12:23;;;;;;;4.00;1.63;;;;;;;19.11;35.83;100959.38;5067218;28;20102;-70
2023/06/15 02:14:49;;;;;;;1.58;1.27;;;;;;;19.09;35.63;100964.72;5066978;28;20028;-70
2023/06/15 02:17:16;;;;;;;1.73;1.38;;;;;;;19.05;35.43;100963.06;5067097;28;20423;-69
2023/06/15 02:19:46;;;;;;;9.23;2.05;;;;;;;19.04;35.27;100961.38;5067073;28;20019;-70
2023/06/15 02:22:11;;;;;;;2.38;1.83;;;;;;;18.99;35.26;100952.78;5067054;28;20103;-70
2023/06/15 02:24:37;;;;;;;2.20;1.40;;;;;;;18.96;35.37;100959.00;5066722;28;20393;-70
2023/06/15 02:27:02;;;;;;;3.65;1.75;;;;;;;18.90;35.74;100956.56;5067063;28;20020;-70
2023/06/15 02:29:28;;;;;;;3.33;1.60;;;;;;;18.91;35.54;100967.03;5066941;28;20036;-70
2023/06/15 02:31:53;;;;;;;2.47;1.83;;;;;;;18.83;35.72;100966.47;5066772;28;20135;-70
2023/06/15 02:34:19;;;;;;;1.60;1.30;;;;;;;18.85;36.15;100969.03;5066756;28;20042;-70
2023/06/15 02:36:46;;;;;;;4.55;1.63;;;;;;;18.86;35.96;100971.63;5065622;28;20425;-71
2023/06/15 02:39:12;;;;;;;2.38;1.80;;;;;;;18.85;36.14;100967.25;5066529;28;20024;-69
2023/06/15 02:41:38;;;;;;;3.47;2.03;;;;;;;18.90;36.16;100969.72;5066178;28;20045;-71
2023/06/15 02:44:04;;;;;;;5.75;2.20;;;;;;;18.93;36.12;100965.22;5066527;28;20054;-70
2023/06/15 02:46:30;;;;;;;2.35;1.45;;;;;;;18.94;36.18;100966.97;5048393;28;20033;-70
2023/06/15 02:48:56;;;;;;;2.47;1.98;;;;;;;18.95;36.35;100975.69;5066493;28;20043;-70
2023/06/15 02:51:22;;;;;;;2.13;1.80;;;;;;;18.94;36.11;100973.97;5066545;28;20024;-70
2023/06/15 02:53:48;;;;;;;5.88;2.08;;;;;;;18.90;36.13;100970.59;5066361;28;20084;-71
2023/06/15 02:56:18;;;;;;;1.92;1.77;;;;;;;18.91;36.30;100971.47;5066459;28;20027;-73
2023/06/15 02:58:53;;;;;;;2.55;1.88;;;;;;;18.90;36.33;100970.59;5066275;28;20025;-70
2023/06/15 03:01:23;;;;;;;2.65;2.03;;;;;;;18.95;36.16;100970.44;5066566;28;20029;-70
2023/06/15 03:03:50;;;;;;;3.95;1.92;;;;;;;19.03;36.20;100973.66;5048151;28;20021;-70
2023/06/15 03:06:16;;;;;;;3.05;1.60;;;;;;;19.09;36.23;100975.22;5066120;28;20028;-70
2023/06/15 03:08:42;;;;;;;7.60;1.85;;;;;;;19.18;36.51;100979.31;5066152;28;20029;-70
2023/06/15 03:11:08;;;;;;;3.83;2.20;;;;;;;19.39;36.68;100975.03;5065931;28;20020;-71
2023/06/15 03:13:34;;;;;;;3.03;1.52;;;;;;;19.62;36.47;100973.34;5066150;28;20027;-71
2023/06/15 03:16:01;;;;;;;3.03;1.60;;;;;;;19.90;36.34;100976.72;5065862;28;20033;-71
2023/06/15 03:18:30;;;;;;;2.60;1.40;;;;;;;20.22;36.16;100971.97;5048046;28;20021;-69
2023/06/15 03:20:56;;;;;;;3.13;2.15;;;;;;;20.57;35.86;100971.44;5065921;28;20470;-70
2023/06/15 03:23:22;;;;;;;2.92;1.98;;;;;;;20.87;35.65;100967.56;5065919;28;20027;-71
2023/06/15 03:25:49;;;;;;;5.53;2.00;;;;;;;21.17;35.38;100972.47;5065512;28;20052;-71
2023/06/15 03:28:15;;;;;;;2.30;1.48;;;;;;;21.49;35.11;100975.44;5065770;28;20044;-70
2023/06/15 03:30:40;;;;;;;2.45;1.63;;;;;;;21.88;35.07;100978.13;5065864;28;20027;-70
2023/06/15 03:33:09;;;;;;;2.30;1.73;;;;;;;22.19;34.52;100974.00;5065669;28;20070;-70
2023/06/15 03:35:34;;;;;;;1.58;1.48;;;;;;;22.34;34.25;100960.97;5065619;28;20108;-71
2023/06/15 03:38:00;;;;;;;2.35;1.90;;;;;;;22.71;33.76;100979.47;5047786;28;20021;-69
2023/06/15 03:40:25;;;;;;;4.68;2.05;;;;;;;23.00;33.81;100971.81;5065052;28;20041;-71
2023/06/15 03:42:50;;;;;;;3.50;2.00;;;;;;;23.27;33.88;100974.78;5065625;28;20089;-70
2023/06/15 03:45:17;;;;;;;2.80;1.55;;;;;;;23.69;33.38;100971.72;5065399;28;20033;-70
2023/06/15 03:47:45;;;;;;;2.60;1.55;;;;;;;24.19;33.30;100973.44;5065168;28;20025;-71
2023/06/15 03:50:11;;;;;;;1.25;1.13;;;;;;;24.59;32.79;100975.56;5065532;28;20028;-70
2023/06/15 03:52:36;;;;;;;4.90;2.15;;;;;;;24.91;32.51;100970.19;5065634;28;20024;-70
2023/06/15 03:55:02;;;;;;;1.88;1.45;;;;;;;24.93;31.48;100973.63;5065292;28;20108;-71
2023/06/15 03:57:27;;;;;;;2.40;1.90;;;;;;;25.00;31.71;100966.97;5066022;28;20421;-71
2023/06/15 03:59:53;;;;;;;1.63;1.38;;;;;;;25.22;31.77;100981.59;5065309;28;20028;-71
2023/06/15 04:02:18;;;;;;;5.38;2.22;;;;;;;25.46;32.02;100981.00;5065202;28;20047;-73
2023/06/15 04:04:44;;;;;;;2.78;1.75;;;;;;;25.73;31.47;100977.59;5065041;28;20021;-74
2023/06/15 04:07:09;;;;;;;4.93;2.25;;;;;;;25.99;31.38;100969.72;5047209;28;20046;-76
2023/06/15 04:09:35;;;;;;;5.00;2.03;;;;;;;26.31;31.06;100971.25;5064894;28;20025;-75
2023/06/15 04:12:00;;;;;;;3.05;1.88;;;;;;;26.75;30.73;100981.66;5046977;28;20088;-74
2023/06/15 04:14:26;;;;;;;6.13;2.38;;;;;;;27.06;29.81;100973.41;5065115;28;20028;-73
2023/06/15 04:16:52;;;;;;;3.45;2.15;;;;;;;27.16;29.69;100969.13;5064983;28;20024;-75
2023/06/15 04:19:22;;;;;;;2.78;1.85;;;;;;;27.26;28.87;100974.66;5047042;28;20028;-72
2023/06/15 04:21:50;;;;;;;4.80;2.72;;;;;;;27.37;28.74;100978.38;5065054;28;20032;-74
2023/06/15 04:24:15;;;;;;;2.17;1.98;;;;;;;27.73;29.02;100973.22;5064690;28;20029;-72
2023/06/15 04:26:45;;;;;;;3.78;2.22;;;;;;;27.98;28.56;100968.72;5064788;28;20049;-69
2023/06/15 04:29:11;;;;;;;5.13;2.22;;;;;;;27.93;28.05;100980.59;5064949;28;20024;-74
2023/06/15 04:31:36;;;;;;;2.75;2.00;;;;;;;28.09;28.00;100968.78;5046671;28;20021;-68
2023/06/15 04:34:04;;;;;;;3.35;1.77;;;;;;;28.36;27.92;100967.72;5064476;28;20032;-74
2023/06/15 04:36:31;;;;;;;4.88;2.55;;;;;;;28.50;27.24;100960.50;5064479;28;20111;-73
2023/06/15 04:38:57;;;;;;;4.20;2.47;;;;;;;28.38;26.98;100978.28;5064549;28;20020;-69
2023/06/15 04:41:24;;;;;;;3.38;2.28;;;;;;;28.54;26.99;100957.47;5064378;28;20428;-69
2023/06/15 04:43:50;;;;;;;4.53;2.15;;;;;;;28.72;26.72;100958.84;5064936;28;20272;-69
2023/06/15 04:46:17;;;;;;;5.95;2.22;;;;;;;28.94;26.45;100963.34;5064376;28;20017;-69
2023/06/15 04:48:43;;;;;;;3.70;2.80;;;;;;;29.16;26.62;100961.69;5064556;28;20151;-70
2023/06/15 04:51:12;;;;;;;2.35;2.05;;;;;;;29.42;26.29;100962.28;5064388;28;20036;-71
2023/06/15 04:53:43;;;;;;;8.68;2.80;;;;;;;29.72;26.12;100959.09;5046659;28;20090;-69
2023/06/15 04:56:10;;;;;;;4.10;2.30;;;;;;;30.41;25.95;100965.06;5064365;28;20032;-70
2023/06/15 04:58:35;;;;;;;4.50;2.63;;;;;;;30.75;25.19;100958.66;5064782;28;20080;-69
2023/06/15 05:01:01;;;;;;;5.35;2.38;;;;;;;30.75;25.33;100956.81;5066886;28;20024;-70
2023/06/15 05:03:27;;;;;;;3.08;2.28;;;;;;;30.84;25.82;100962.41;5068253;28;20461;-70
2023/06/15 05:05:52;;;;;;;3.58;1.92;;;;;;;31.09;25.56;100966.47;5068223;28;20048;-70
2023/06/15 05:08:18;;;;;;;4.32;2.63;;;;;;;31.02;24.70;100970.69;5068677;28;20016;-70
2023/06/15 05:10:44;;;;;;;5.63;2.13;;;;;;;31.25;25.29;100965.97;5068215;28;20112;-70
2023/06/15 05:13:10;;;;;;;4.63;2.15;;;;;;;31.77;24.73;100970.38;5068307;28;20052;-68
2023/06/15 05:15:35;;;;;;;3.58;2.35;;;;;;;32.45;24.16;100965.16;5067938;28;20028;-70
2023/06/15 05:18:01;;;;;;;3.15;2.17;;;;;;;32.78;23.74;100970.22;5068289;28;20028;-71
2023/06/15 05:20:26;;;;;;;2.95;2.15;;;;;;;32.74;23.19;100987.59;5068199;28;20040;-70
2023/06/15 05:22:52;;;;;;;4.57;1.83;;;;;;;32.55;22.73;100981.28;5050392;28;20029;-69
2023/06/15 05:25:19;;;;;;;2.08;1.88;;;;;;;31.95;22.71;100977.75;5068058;28;20048;-71
2023/06/15 05:27:44;;;;;;;5.25;1.90;;;;;;;31.52;23.37;100972.56;5068269;28;20071;-71
2023/06/15 05:30:11;;;;;;;2.33;1.70;;;;;;;31.37;23.64;100976.59;5050075;28;20489;-70
2023/06/15 05:32:38;;;;;;;3.47;2.22;;;;;;;31.12;23.58;100976.91;5068291;28;20035;-70
2023/06/15 05:35:08;;;;;;;2.00;1.27;;;;;;;31.23;24.28;100969.78;5049997;28;20025;-71
2023/06/15 05:37:35;;;;;;;2.30;1.63;;;;;;;31.72;23.88;100977.13;5067798;28;20033;-70
2023/06/15 05:40:02;;;;;;;2.78;1.50;;;;;;;32.20;23.70;100982.72;5067666;28;20545;-70
2023/06/15 05:42:28;;;;;;;2.20;1.52;;;;;;;33.01;23.05;100980.59;5067959;28;20045;-71
2023/06/15 05:44:53;;;;;;;7.57;1.77;;;;;;;33.29;22.65;100975.28;5049453;28;20036;-69
2023/06/15 05:47:19;;;;;;;1.92;1.52;;;;;;;33.30;21.89;100976.09;5067891;28;20206;-71
2023/06/15 05:49:44;;;;;;;2.65;1.95;;;;;;;32.84;22.14;100977.69;5067799;28;20109;-69
2023/06/15 05:52:10;;;;;;;2.10;1.52;;;;;;;32.22;22.29;100980.72;5067753;28;20163;-70
2023/06/15 05:54:35;;;;;;;2.25;1.55;;;;;;;31.65;22.58;100958.91;5067395;28;20024;-70
2023/06/15 05:57:02;;;;;;;6.85;2.05;;;;;;;31.39;22.61;100978.19;5049714;28;20021;-69
2023/06/15 05:59:28;;;;;;;1.88;1.70;;;;;;;30.94;22.66;100979.41;5067650;28;20025;-69
2023/06/15 06:01:55;;;;;;;1.90;1.60;;;;;;;30.47;23.19;100979.75;5049601;28;20052;-69
2023/06/15 06:04:20;;;;;;;2.28;1.88;;;;;;;30.06;23.54;100981.25;5067332;28;20029;-70
2023/06/15 06:06:48;;;;;;;4.35;2.05;;;;;;;29.53;24.05;100981.97;5067473;28;20516;-69
2023/06/15 06:09:14;;;;;;;2.22;1.60;;;;;;;29.13;24.25;100983.31;5067454;28;20032;-69
2023/06/15 06:11:39;;;;;;;3.50;2.38;;;;;;;28.32;25.05;100982.28;5066898;28;20021;-70
2023/06/15 06:14:05;;;;;;;2.10;1.58;;;;;;;27.84;25.81;100991.97;5067292;28;20082;-71
2023/06/15 06:16:30;;;;;;;2.45;1.80;;;;;;;27.86;26.56;100992.69;5049092;28;20032;-70
2023/06/15 06:18:55;;;;;;;2.42;2.03;;;;;;;28.31;26.53;100984.09;5068049;28;20042;-69
2023/06/15 06:21:21;;;;;;;2.58;1.67;;;;;;;28.68;26.42;100991.13;5067293;28;20017;-69
2023/06/15 06:23:46;;;;;;;1.98;1.60;;;;;;;28.97;26.03;100979.19;5049232;28;20025;-70
2023/06/15 06:26:12;;;;;;;2.00;1.80;;;;;;;29.08;26.52;100983.69;5066881;28;20021;-68
2023/06/15 06:28:37;;;;;;;2.22;1.73;;;;;;;29.40;26.07;100974.94;5067005;28;20025;-70
2023/06/15 06:31:03;;;;;;;2.63;2.15;;;;;;;29.39;25.64;100980.41;5066854;28;20047;-70
2023/06/15 06:33:28;;;;;;;2.85;2.33;;;;;;;29.25;26.38;100981.50;5067242;28;20080;-69
2023/06/15 06:35:54;;;;;;;1.60;1.35;;;;;;;29.52;26.11;100982.94;5066819;28;20016;-70
2023/06/15 06:38:19;;;;;;;2.53;1.70;;;;;;;29.75;26.10;100989.13;5048908;28;20033;-69
2023/06/15 06:40:45;;;;;;;3.40;1.60;;;;;;;29.66;25.79;100980.03;5066195;28;20140;-70
2023/06/15 06:43:10;;;;;;;2.65;2.20;;;;;;;29.36;26.32;100978.84;5048767;28;20074;-69
2023/06/15 06:45:35;;;;;;;2.67;1.95;;;;;;;28.80;26.17;100985.81;5048528;28;20484;-69
2023/06/15 06:48:01;;;;;;;2.25;1.90;;;;;;;28.24;26.87;100997.97;5048769;28;20048;-70
2023/06/15 06:50:26;;;;;;;2.28;2.08;;;;;;;27.69;27.56;101000.09;5048503;28;20025;-71
2023/06/15 06:52:52;;;;;;;3.47;2.13;;;;;;;27.18;27.86;100993.00;5066783;28;20036;-70
2023/06/15 06:55:17;;;;;;;4.32;1.88;;;;;;;26.85;28.47;101008.53;5066182;28;20025;-70
2023/06/15 06:57:42;;;;;;;3.05;2.03;;;;;;;26.40;29.09;101003.53;5066402;28;20021;-69
2023/06/15 07:00:10;;;;;;;3.58;2.33;;;;;;;25.92;30.07;101003.00;5066179;28;20027;-70
2023/06/15 07:02:35;;;;;;;3.53;1.88;;;;;;;25.35;31.41;101015.38;5048273;28;20028;-68
2023/06/15 07:05:01;;;;;;;3.20;2.33;;;;;;;25.06;32.05;101010.03;5066005;28;20017;-71
2023/06/15 07:07:26;;;;;;;4.15;2.38;;;;;;;24.77;32.62;101010.81;5066256;28;20036;-70
2023/06/15 07:09:52;;;;;;;2.85;2.13;;;;;;;24.53;32.60;101007.78;5065999;28;20021;-71
2023/06/15 07:12:17;;;;;;;4.28;2.60;;;;;;;24.35;32.55;101021.16;5066198;28;20035;-74
2023/06/15 07:14:42;;;;;;;3.53;2.22;;;;;;;24.16;33.24;101014.28;5048068;28;20027;-70
2023/06/15 07:17:08;;;;;;;3.17;2.25;;;;;;;24.04;33.58;101013.16;5066063;28;20025;-69
2023/06/15 07:19:33;;;;;;;3.78;2.83;;;;;;;24.00;34.54;101004.50;5066013;28;20017;-70
2023/06/15 07:21:58;;;;;;;2.33;1.98;;;;;;;24.20;35.55;101001.69;5066066;28;20535;-69
2023/06/15 07:24:24;;;;;;;2.42;1.92;;;;;;;24.35;36.30;101006.13;5065064;28;20076;-70
2023/06/15 07:26:49;;;;;;;9.05;3.05;;;;;;;24.59;36.59;100991.50;5047905;28;20488;-70
2023/06/15 07:29:15;;;;;;;4.00;2.03;;;;;;;24.63;36.06;100998.34;5065798;28;20108;-71
2023/06/15 07:31:40;;;;;;;3.75;2.20;;;;;;;24.72;35.82;100981.03;5065847;28;20380;-72
2023/06/15 07:34:05;;;;;;;6.60;2.83;;;;;;;24.84;35.43;100990.06;5065914;28;20047;-72
2023/06/15 07:36:31;;;;;;;3.72;2.45;;;;;;;25.05;35.00;101005.69;5065673;28;20091;-71
2023/06/15 07:38:56;;;;;;;9.07;2.70;;;;;;;25.34;35.18;101001.22;5065632;28;20039;-72
2023/06/15 07:41:22;;;;;;;3.03;2.72;;;;;;;25.50;34.45;100994.97;5065327;28;20049;-71
2023/06/15 07:43:47;;;;;;;3.70;2.80;;;;;;;25.72;34.36;100997.16;5065602;28;20024;-73
2023/06/15 07:46:13;;;;;;;2.35;1.73;;;;;;;26.39;33.68;101005.34;5065703;28;20020;-70
2023/06/15 07:48:38;;;;;;;2.97;1.90;;;;;;;27.21;33.23;101001.66;5065756;28;20104;-69
2023/06/15 07:51:03;;;;;;;2.15;1.73;;;;;;;28.24;31.98;101003.31;5065441;28;20040;-72
2023/06/15 07:53:29;;;;;;;3.15;2.25;;;;;;;28.43;29.31;100985.00;5047620;28;20028;-71
2023/06/15 07:55:55;;;;;;;6.28;2.45;;;;;;;28.19;29.75;100999.19;5047236;28;20024;-71
2023/06/15 07:58:20;;;;;;;3.80;2.20;;;;;;;28.36;30.04;100994.41;5047613;28;20032;-70
2023/06/15 08:00:46;;;;;;;4.75;3.10;;;;;;;28.36;29.87;101004.22;5065640;28;20046;-71
2023/06/15 08:03:11;;;;;;;3.00;2.22;;;;;;;28.39;29.95;101004.03;5065489;28;20024;-72
2023/06/15 08:05:37;;;;;;;3.85;2.63;;;;;;;28.40;29.89;101006.59;5065317;28;20029;-71
2023/06/15 08:08:02;;;;;;;2.33;2.13;;;;;;;28.65;29.95;101001.19;5065336;28;20060;-73
2023/06/15 08:10:29;;;;;;;3.28;2.70;;;;;;;28.63;29.14;101009.31;5065019;28;20028;-72
2023/06/15 08:12:55;;;;;;;3.13;2.10;;;;;;;28.04;29.60;100994.97;5065245;28;20055;-72
2023/06/15 08:15:21;;;;;;;6.05;2.58;;;;;;;27.43;30.03;100993.94;5065274;28;20032;-72
2023/06/15 08:17:46;;;;;;;3.70;3.15;;;;;;;27.42;30.74;100995.75;5065326;28;20021;-72
2023/06/15 08:20:12;;;;;;;4.80;2.85;;;;;;;27.92;30.55;100999.41;5065235;28;20025;-73
2023/06/15 08:22:37;;;;;;;2.90;2.60;;;;;;;27.95;30.16;100994.69;5065302;28;20017;-73
2023/06/15 08:25:03;;;;;;;4.82;3.47;;;;;;;28.04;29.73;100994.97;5065056;28;20021;-71
2023/06/15 08:27:29;;;;;;;9.75;3.10;;;;;;;27.87;30.19;100998.88;5065230;28;20078;-72
2023/06/15 08:29:54;;;;;;;4.00;2.58;;;;;;;27.48;31.01;100981.13;5065151;28;20367;-72
2023/06/15 08:32:20;;;;;;;3.83;2.53;;;;;;;27.59;31.01;100996.34;5065191;28;20028;-72
2023/06/15 08:34:45;;;;;;;2.88;2.63;;;;;;;27.91;30.37;100992.38;5048690;28;20025;-73
2023/06/15 08:37:11;;;;;;;8.38;3.03;;;;;;;28.03;30.13;100987.94;5069305;28;20016;-72
2023/06/15 08:39:38;;;;;;;4.70;2.42;;;;;;;27.88;29.83;100997.91;5069166;28;20021;-73
2023/06/15 08:42:04;;;;;;;4.03;2.75;;;;;;;27.63;30.58;100997.84;5050935;28;20192;-71
2023/06/15 08:44:33;;;;;;;3.50;2.72;;;;;;;27.55;30.46;100997.53;5050852;28;20028;-72
2023/06/15 08:47:01;;;;;;;2.72;1.98;;;;;;;27.24;30.86;100989.06;5069131;28;20076;-71
2023/06/15 08:49:28;;;;;;;3.50;2.17;;;;;;;27.34;30.82;100998.09;5068871;28;20048;-71
2023/06/15 08:51:54;;;;;;;3.70;2.40;;;;;;;27.43;29.79;100989.47;5069055;28;20049;-73
2023/06/15 08:54:21;;;;;;;2.28;2.00;;;;;;;27.52;30.05;100993.28;5068988;28;20024;-72
2023/06/15 08:56:46;;;;;;;2.15;1.83;;;;;;;28.15;28.87;101003.03;5068466;28;20055;-73
2023/06/15 08:59:11;;;;;;;5.35;2.40;;;;;;;28.70;28.95;100994.53;5068926;28;20021;-72
2023/06/15 09:01:40;;;;;;;2.70;1.80;;;;;;;29.34;27.66;100995.94;5068739;28;20036;-73
2023/06/15 09:04:07;;;;;;;2.83;1.92;;;;;;;29.50;27.66;100995.59;5050704;28;20052;-74
2023/06/15 09:06:32;;;;;;;3.00;1.85;;;;;;;29.67;27.43;100991.56;5068708;28;20503;-75
2023/06/15 09:08:58;;;;;;;2.30;2.08;;;;;;;29.86;27.31;100990.91;5068481;28;20033;-73
2023/06/15 09:11:24;;;;;;;2.33;1.92;;;;;;;29.65;27.19;100993.53;5068393;28;20021;-72
2023/06/15 09:13:54;;;;;;;3.40;2.10;;;;;;;29.37;27.10;100990.38;5068400;28;20025;-73
2023/06/15 09:16:20;;;;;;;4.83;2.50;;;;;;;28.95;26.01;100998.00;5068471;28;20226;-73
2023/06/15 09:18:47;;;;;;;3.80;2.30;;;;;;;28.58;26.26;101003.47;5068335;28;20297;-73
2023/06/15 09:21:14;;;;;;;2.33;1.67;;;;;;;28.58;26.45;101006.13;5050883;28;20100;-72
2023/06/15 09:23:44;;;;;;;4.90;3.55;;;;;;;28.79;26.43;101000.97;5068385;28;20033;-72
2023/06/15 09:26:21;;;;;;;3.30;2.45;;;;;;;28.91;25.93;101003.69;5068029;28;20024;-73
2023/06/15 09:28:47;;;;;;;2.22;1.40;;;;;;;28.73;25.05;101003.25;5050266;28;20104;-74
2023/06/15 09:31:31;;;;;;;2.58;2.05;;;;;;;28.24;25.99;101003.31;5067677;28;20053;-74
2023/06/15 09:34:14;;;;;;;2.28;1.90;;;;;;;28.63;26.45;101003.97;5068200;28;20029;-74
2023/06/15 09:36:51;;;;;;;3.10;1.73;;;;;;;29.38;25.92;101006.28;5082337;23;20490;-71
2023/06/15 09:39:25;;;;;;;2.25;1.55;;;;;;;29.32;25.14;101001.44;5049875;28;20052;-72
2023/06/15 09:41:56;;;;;;;2.55;2.13;;;;;;;28.89;25.24;101008.28;5074183;23;20057;-68
2023/06/15 09:44:22;;;;;;;5.75;2.10;;;;;;;28.37;24.73;101009.47;5081028;23;20053;-66
2023/06/15 09:46:50;;;;;;;3.20;1.83;;;;;;;27.79;25.60;101015.44;5073366;23;20053;-70
2023/06/15 09:49:21;;;;;;;2.20;1.75;;;;;;;27.75;25.53;101019.31;5049560;28;20013;-71
2023/06/15 09:51:49;;;;;;;2.40;1.50;;;;;;;28.06;25.87;101011.72;5049656;28;20029;-71
2023/06/15 09:54:17;;;;;;;2.17;1.65;;;;;;;28.74;25.57;101005.81;5067613;28;20021;-71
2023/06/15 09:56:45;;;;;;;2.47;1.70;;;;;;;29.67;24.72;100996.91;5049280;28;20040;-72
2023/06/15 09:59:11;;;;;;;2.55;1.83;;;;;;;30.41;23.24;101005.25;5067718;28;20032;-70
2023/06/15 10:01:37;;;;;;;2.55;1.65;;;;;;;30.94;23.12;100999.97;5076216;23;20045;-68
2023/06/15 10:04:04;;;;;;;1.85;1.42;;;;;;;31.82;22.91;101001.31;5067425;28;20054;-68
2023/06/15 10:06:33;;;;;;;1.75;1.48;;;;;;;32.69;22.46;100997.94;5067482;28;20021;-67
2023/06/15 10:09:00;;;;;;;2.28;1.88;;;;;;;33.59;21.32;100986.72;5067412;28;20029;-67
2023/06/15 10:11:27;;;;;;;4.03;2.05;;;;;;;33.39;20.16;100980.59;5067133;28;20112;-69
2023/06/15 10:13:57;;;;;;;2.10;1.73;;;;;;;33.09;20.96;100983.44;5067368;28;20104;-66
2023/06/15 10:16:23;;;;;;;4.75;2.42;;;;;;;33.14;21.80;100977.59;5067144;28;20025;-68
2023/06/15 10:19:01;;;;;;;6.85;1.92;;;;;;;33.86;20.73;100978.78;5067122;28;20119;-68
2023/06/15 10:21:29;;;;;;;1.75;1.48;;;;;;;34.20;20.50;100966.47;5067227;28;20021;-67
2023/06/15 10:24:00;;;;;;;4.20;2.03;;;;;;;34.55;20.61;100969.25;5080111;23;20132;-67
2023/06/15 10:26:25;;;;;;;3.20;1.50;;;;;;;35.06;20.54;100961.31;5062524;22;20084;-65
2023/06/15 10:29:36;;;;;;;2.05;1.30;;;;;;;35.63;18.79;100958.13;5107633;22;20044;-65
2023/06/15 10:32:20;;;;;;;4.30;1.90;;;;;;;36.31;19.86;100964.28;5069939;22;20316;-68
2023/06/15 10:34:56;;;;;;;2.72;1.90;;;;;;;36.49;19.02;100963.25;5066628;28;20064;-67
2023/06/15 10:37:28;;;;;;;3.95;2.13;;;;;;;36.18;18.55;100963.94;5066625;28;20041;-67
2023/06/15 10:39:58;;;;;;;3.97;1.60;;;;;;;35.81;18.45;100958.88;5066247;28;20424;-67
2023/06/15 10:42:26;;;;;;;2.72;1.88;;;;;;;35.29;18.53;100959.91;5066639;28;20040;-67
2023/06/15 10:44:51;;;;;;;2.53;1.63;;;;;;;34.93;19.21;100956.38;5066000;28;20044;-66
2023/06/15 10:47:21;;;;;;;1.30;1.20;;;;;;;34.88;18.90;100957.84;5066379;28;20021;-67
2023/06/15 10:49:51;;;;;;;1.83;1.30;;;;;;;35.31;18.83;100960.56;5066440;28;20021;-67
2023/06/15 10:52:17;;;;;;;1.88;1.60;;;;;;;35.69;18.92;100950.22;5072567;23;20437;-74
2023/06/15 10:54:43;;;;;;;5.32;2.10;;;;;;;35.82;17.73;100954.28;5096368;23;20151;-67
2023/06/15 10:57:08;;;;;;;2.20;2.00;;;;;;;35.07;17.74;100957.59;5126689;28;20031;-67
2023/06/15 10:59:37;;;;;;;2.00;1.55;;;;;;;33.93;18.80;100954.78;5126277;28;20024;-67
2023/06/15 11:02:29;;;;;;;3.13;1.83;;;;;;;33.43;19.63;100948.84;5126905;28;20024;-68
2023/06/15 11:05:08;;;;;;;1.67;1.55;;;;;;;32.73;19.82;100957.19;5072756;22;20056;-72
2023/06/15 11:07:36;;;;;;;2.22;1.83;;;;;;;32.12;20.37;100949.38;5066024;28;20029;-73
2023/06/15 11:10:27;;;;;;;3.17;2.10;;;;;;;31.57;20.74;100953.38;5065699;28;20029;-73
2023/06/15 11:13:23;;;;;;;2.17;1.45;;;;;;;31.50;21.08;100949.56;5048092;28;20054;-74
2023/06/15 11:16:05;;;;;;;7.90;2.17;;;;;;;31.33;21.43;100941.13;5065705;28;20028;-74
2023/06/15 11:18:31;;;;;;;1.92;1.73;;;;;;;31.11;21.41;100948.41;5066024;28;20025;-73
2023/06/15 11:21:05;;;;;;;2.00;1.77;;;;;;;30.80;22.44;100943.91;5082467;28;20391;-66
2023/06/15 11:23:33;;;;;;;7.50;2.65;;;;;;;30.54;23.99;100938.09;5082469;28;20092;-67
2023/06/15 11:26:01;;;;;;;2.78;1.80;;;;;;;30.36;24.17;100944.03;5082441;28;20028;-67